Terminal Aerodrome Forecast
Issued by NWS

Home | Current Version | Previous Version | Text Only | Print | Product List | Glossary Off
Versions: 1 2 3 4 5 6 7 8 9 10 11 12 13 14 15

877
FTUS42 KMHX 181722
TAFISO
TAF
KISO 181722Z 1818/1918 16010G18KT 5SM -SHRA BR OVC020
     FM182300 17009KT P6SM VCSH BKN025
     FM190600 15008KT 5SM -SHRA SCT005 OVC020
     FM191100 18010G17KT 3SM +SHRA SCT005 OVC015
      AMD LTD TO CLD VIS AND WIND=

USA.gov is the U.S. government's official web portal to all federal, state and local government web resources and services.